sensor_id;sensor_type;location;lat;lon;timestamp;P1;durP1;ratioP1;P2;durP2;ratioP2
12052;SDS011;6087;48.982;12.064;2023-03-01T00:02:22;17.60;;;11.77;;
12052;SDS011;6087;48.982;12.064;2023-03-01T00:04:50;19.20;;;12.90;;
12052;SDS011;6087;48.982;12.064;2023-03-01T00:07:17;18.77;;;12.53;;
12052;SDS011;6087;48.982;12.064;2023-03-01T00:09:47;15.93;;;11.67;;
12052;SDS011;6087;48.982;12.064;2023-03-01T00:12:19;17.40;;;11.50;;
12052;SDS011;6087;48.982;12.064;2023-03-01T00:14:46;22.13;;;11.23;;
12052;SDS011;6087;48.982;12.064;2023-03-01T00:17:13;15.10;;;11.37;;
12052;SDS011;6087;48.982;12.064;2023-03-01T00:19:41;16.57;;;12.10;;
12052;SDS011;6087;48.982;12.064;2023-03-01T00:22:08;14.93;;;11.67;;
12052;SDS011;6087;48.982;12.064;2023-03-01T00:24:38;17.90;;;11.10;;
12052;SDS011;6087;48.982;12.064;2023-03-01T00:27:05;17.27;;;12.07;;
12052;SDS011;6087;48.982;12.064;2023-03-01T00:29:39;15.00;;;10.97;;
12052;SDS011;6087;48.982;12.064;2023-03-01T00:32:07;19.43;;;12.17;;
12052;SDS011;6087;48.982;12.064;2023-03-01T00:34:34;21.40;;;12.97;;
12052;SDS011;6087;48.982;12.064;2023-03-01T00:37:01;17.80;;;12.27;;
12052;SDS011;6087;48.982;12.064;2023-03-01T00:39:43;18.03;;;12.23;;
12052;SDS011;6087;48.982;12.064;2023-03-01T00:42:12;16.70;;;12.23;;
12052;SDS011;6087;48.982;12.064;2023-03-01T00:44:41;19.57;;;11.80;;
12052;SDS011;6087;48.982;12.064;2023-03-01T00:47:09;19.30;;;13.87;;
12052;SDS011;6087;48.982;12.064;2023-03-01T00:49:36;20.53;;;12.83;;
12052;SDS011;6087;48.982;12.064;2023-03-01T00:52:07;16.70;;;11.67;;
12052;SDS011;6087;48.982;12.064;2023-03-01T00:54:34;19.17;;;12.87;;
12052;SDS011;6087;48.982;12.064;2023-03-01T00:57:01;18.83;;;12.80;;
12052;SDS011;6087;48.982;12.064;2023-03-01T00:59:28;21.07;;;13.43;;
12052;SDS011;6087;48.982;12.064;2023-03-01T01:01:56;19.30;;;13.00;;
12052;SDS011;6087;48.982;12.064;2023-03-01T01:04:24;21.43;;;12.47;;
12052;SDS011;6087;48.982;12.064;2023-03-01T01:06:51;20.97;;;13.17;;
12052;SDS011;6087;48.982;12.064;2023-03-01T01:09:18;20.50;;;12.97;;
12052;SDS011;6087;48.982;12.064;2023-03-01T01:11:45;19.13;;;12.50;;
12052;SDS011;6087;48.982;12.064;2023-03-01T01:14:14;18.00;;;12.77;;
12052;SDS011;6087;48.982;12.064;2023-03-01T01:16:42;22.00;;;13.63;;
12052;SDS011;6087;48.982;12.064;2023-03-01T01:19:11;23.43;;;14.23;;
12052;SDS011;6087;48.982;12.064;2023-03-01T01:21:39;22.03;;;13.77;;
12052;SDS011;6087;48.982;12.064;2023-03-01T01:24:08;18.97;;;13.77;;
12052;SDS011;6087;48.982;12.064;2023-03-01T01:26:35;20.00;;;13.47;;
12052;SDS011;6087;48.982;12.064;2023-03-01T01:29:03;21.67;;;13.27;;
12052;SDS011;6087;48.982;12.064;2023-03-01T01:31:31;23.60;;;14.80;;
12052;SDS011;6087;48.982;12.064;2023-03-01T01:34:02;19.30;;;12.67;;
12052;SDS011;6087;48.982;12.064;2023-03-01T01:36:35;20.70;;;13.80;;
12052;SDS011;6087;48.982;12.064;2023-03-01T01:39:02;19.03;;;12.83;;
12052;SDS011;6087;48.982;12.064;2023-03-01T01:41:30;22.53;;;13.47;;
12052;SDS011;6087;48.982;12.064;2023-03-01T01:44:10;19.50;;;13.17;;
12052;SDS011;6087;48.982;12.064;2023-03-01T01:46:40;22.03;;;13.53;;
12052;SDS011;6087;48.982;12.064;2023-03-01T01:49:14;20.37;;;13.23;;
12052;SDS011;6087;48.982;12.064;2023-03-01T01:51:51;19.93;;;14.00;;
12052;SDS011;6087;48.982;12.064;2023-03-01T01:54:24;19.93;;;14.07;;
12052;SDS011;6087;48.982;12.064;2023-03-01T01:56:55;26.00;;;13.73;;
12052;SDS011;6087;48.982;12.064;2023-03-01T01:59:26;20.70;;;13.33;;
12052;SDS011;6087;48.982;12.064;2023-03-01T02:01:56;21.27;;;12.77;;
12052;SDS011;6087;48.982;12.064;2023-03-01T02:04:25;21.27;;;13.77;;
12052;SDS011;6087;48.982;12.064;2023-03-01T02:06:55;20.23;;;13.47;;
12052;SDS011;6087;48.982;12.064;2023-03-01T02:09:27;23.53;;;14.47;;
12052;SDS011;6087;48.982;12.064;2023-03-01T02:11:56;22.83;;;13.83;;
12052;SDS011;6087;48.982;12.064;2023-03-01T02:14:24;21.57;;;13.13;;
12052;SDS011;6087;48.982;12.064;2023-03-01T02:16:51;22.73;;;13.83;;
12052;SDS011;6087;48.982;12.064;2023-03-01T02:19:23;20.50;;;13.40;;
12052;SDS011;6087;48.982;12.064;2023-03-01T02:22:00;20.13;;;12.87;;
12052;SDS011;6087;48.982;12.064;2023-03-01T02:24:38;23.30;;;13.50;;
12052;SDS011;6087;48.982;12.064;2023-03-01T02:27:18;20.70;;;13.40;;
12052;SDS011;6087;48.982;12.064;2023-03-01T02:29:54;22.03;;;13.63;;
12052;SDS011;6087;48.982;12.064;2023-03-01T02:32:21;20.13;;;13.70;;
12052;SDS011;6087;48.982;12.064;2023-03-01T02:34:50;21.00;;;13.37;;
12052;SDS011;6087;48.982;12.064;2023-03-01T02:37:19;18.40;;;12.47;;
12052;SDS011;6087;48.982;12.064;2023-03-01T02:39:50;23.20;;;15.57;;
12052;SDS011;6087;48.982;12.064;2023-03-01T02:42:23;19.47;;;13.10;;
12052;SDS011;6087;48.982;12.064;2023-03-01T02:44:56;21.97;;;12.93;;
12052;SDS011;6087;48.982;12.064;2023-03-01T02:47:23;20.70;;;12.90;;
12052;SDS011;6087;48.982;12.064;2023-03-01T02:49:50;19.17;;;12.47;;
12052;SDS011;6087;48.982;12.064;2023-03-01T02:52:22;18.97;;;12.63;;
12052;SDS011;6087;48.982;12.064;2023-03-01T02:55:03;21.47;;;12.40;;
12052;SDS011;6087;48.982;12.064;2023-03-01T02:57:35;23.03;;;13.40;;
12052;SDS011;6087;48.982;12.064;2023-03-01T03:00:06;19.17;;;13.40;;
12052;SDS011;6087;48.982;12.064;2023-03-01T03:02:44;21.00;;;12.67;;
12052;SDS011;6087;48.982;12.064;2023-03-01T03:05:12;21.60;;;12.57;;
12052;SDS011;6087;48.982;12.064;2023-03-01T03:07:41;20.30;;;12.17;;
12052;SDS011;6087;48.982;12.064;2023-03-01T03:10:11;21.60;;;13.97;;
12052;SDS011;6087;48.982;12.064;2023-03-01T03:12:39;22.30;;;13.63;;
12052;SDS011;6087;48.982;12.064;2023-03-01T03:15:09;20.87;;;12.93;;
12052;SDS011;6087;48.982;12.064;2023-03-01T03:17:38;23.33;;;13.40;;
12052;SDS011;6087;48.982;12.064;2023-03-01T03:20:08;24.00;;;13.63;;
12052;SDS011;6087;48.982;12.064;2023-03-01T03:22:38;20.67;;;13.17;;
12052;SDS011;6087;48.982;12.064;2023-03-01T03:25:06;22.43;;;13.23;;
12052;SDS011;6087;48.982;12.064;2023-03-01T03:27:38;19.67;;;12.50;;
12052;SDS011;6087;48.982;12.064;2023-03-01T03:30:06;21.17;;;13.10;;
12052;SDS011;6087;48.982;12.064;2023-03-01T03:32:37;17.53;;;12.40;;
12052;SDS011;6087;48.982;12.064;2023-03-01T03:35:05;24.33;;;12.83;;
12052;SDS011;6087;48.982;12.064;2023-03-01T03:37:35;22.23;;;12.47;;
12052;SDS011;6087;48.982;12.064;2023-03-01T03:40:20;20.07;;;12.30;;
12052;SDS011;6087;48.982;12.064;2023-03-01T03:42:47;20.77;;;13.20;;
12052;SDS011;6087;48.982;12.064;2023-03-01T03:45:16;23.60;;;13.23;;
12052;SDS011;6087;48.982;12.064;2023-03-01T03:47:47;24.13;;;13.97;;
12052;SDS011;6087;48.982;12.064;2023-03-01T03:50:15;18.50;;;12.27;;
12052;SDS011;6087;48.982;12.064;2023-03-01T03:52:44;23.87;;;13.63;;
12052;SDS011;6087;48.982;12.064;2023-03-01T03:55:21;19.73;;;12.27;;
12052;SDS011;6087;48.982;12.064;2023-03-01T03:57:53;19.80;;;12.40;;
12052;SDS011;6087;48.982;12.064;2023-03-01T04:00:21;22.70;;;12.97;;
12052;SDS011;6087;48.982;12.064;2023-03-01T04:02:49;20.13;;;13.37;;
12052;SDS011;6087;48.982;12.064;2023-03-01T04:05:21;21.30;;;13.27;;
12052;SDS011;6087;48.982;12.064;2023-03-01T04:07:48;19.40;;;13.13;;
12052;SDS011;6087;48.982;12.064;2023-03-01T04:10:26;17.93;;;13.20;;
12052;SDS011;6087;48.982;12.064;2023-03-01T04:12:54;20.97;;;13.73;;
12052;SDS011;6087;48.982;12.064;2023-03-01T04:15:23;21.40;;;13.50;;
12052;SDS011;6087;48.982;12.064;2023-03-01T04:17:52;19.30;;;13.17;;
12052;SDS011;6087;48.982;12.064;2023-03-01T04:20:22;21.23;;;13.13;;
12052;SDS011;6087;48.982;12.064;2023-03-01T04:22:50;21.67;;;13.37;;
12052;SDS011;6087;48.982;12.064;2023-03-01T04:25:18;21.27;;;13.37;;
12052;SDS011;6087;48.982;12.064;2023-03-01T04:27:45;18.77;;;12.17;;
12052;SDS011;6087;48.982;12.064;2023-03-01T04:30:13;19.33;;;13.03;;
12052;SDS011;6087;48.982;12.064;2023-03-01T04:32:42;19.33;;;13.60;;
12052;SDS011;6087;48.982;12.064;2023-03-01T04:35:09;20.60;;;12.40;;
12052;SDS011;6087;48.982;12.064;2023-03-01T04:37:36;19.93;;;12.50;;
12052;SDS011;6087;48.982;12.064;2023-03-01T04:40:04;21.60;;;12.93;;
12052;SDS011;6087;48.982;12.064;2023-03-01T04:42:41;19.60;;;12.77;;
12052;SDS011;6087;48.982;12.064;2023-03-01T04:45:08;23.20;;;12.47;;
12052;SDS011;6087;48.982;12.064;2023-03-01T04:47:38;20.03;;;12.87;;
12052;SDS011;6087;48.982;12.064;2023-03-01T04:50:08;20.63;;;13.20;;
12052;SDS011;6087;48.982;12.064;2023-03-01T04:52:36;22.77;;;13.90;;
12052;SDS011;6087;48.982;12.064;2023-03-01T04:55:04;23.53;;;13.67;;
12052;SDS011;6087;48.982;12.064;2023-03-01T04:57:33;21.03;;;14.03;;
12052;SDS011;6087;48.982;12.064;2023-03-01T05:00:00;21.57;;;13.13;;
12052;SDS011;6087;48.982;12.064;2023-03-01T05:02:44;20.47;;;12.87;;
12052;SDS011;6087;48.982;12.064;2023-03-01T05:05:15;23.20;;;14.07;;
12052;SDS011;6087;48.982;12.064;2023-03-01T05:07:42;20.00;;;13.53;;
12052;SDS011;6087;48.982;12.064;2023-03-01T05:10:09;18.90;;;13.20;;
12052;SDS011;6087;48.982;12.064;2023-03-01T05:12:37;21.07;;;13.30;;
12052;SDS011;6087;48.982;12.064;2023-03-01T05:15:04;20.97;;;13.93;;
12052;SDS011;6087;48.982;12.064;2023-03-01T05:17:32;23.67;;;14.23;;
12052;SDS011;6087;48.982;12.064;2023-03-01T05:20:00;22.43;;;13.67;;
12052;SDS011;6087;48.982;12.064;2023-03-01T05:22:33;23.33;;;12.67;;
12052;SDS011;6087;48.982;12.064;2023-03-01T05:25:00;23.17;;;14.03;;
12052;SDS011;6087;48.982;12.064;2023-03-01T05:27:27;22.33;;;13.83;;
12052;SDS011;6087;48.982;12.064;2023-03-01T05:29:54;22.83;;;13.80;;
12052;SDS011;6087;48.982;12.064;2023-03-01T05:32:21;23.27;;;13.90;;
12052;SDS011;6087;48.982;12.064;2023-03-01T05:34:48;22.27;;;14.03;;
12052;SDS011;6087;48.982;12.064;2023-03-01T05:37:17;19.10;;;13.00;;
12052;SDS011;6087;48.982;12.064;2023-03-01T05:39:46;25.30;;;13.40;;
12052;SDS011;6087;48.982;12.064;2023-03-01T05:42:15;20.07;;;14.37;;
12052;SDS011;6087;48.982;12.064;2023-03-01T05:44:43;23.17;;;14.27;;
12052;SDS011;6087;48.982;12.064;2023-03-01T05:47:10;24.30;;;14.60;;
12052;SDS011;6087;48.982;12.064;2023-03-01T05:49:37;22.90;;;13.60;;
12052;SDS011;6087;48.982;12.064;2023-03-01T05:52:04;26.90;;;14.07;;
12052;SDS011;6087;48.982;12.064;2023-03-01T05:54:31;20.17;;;13.10;;
12052;SDS011;6087;48.982;12.064;2023-03-01T05:56:59;25.03;;;15.03;;
12052;SDS011;6087;48.982;12.064;2023-03-01T05:59:33;21.33;;;13.27;;
12052;SDS011;6087;48.982;12.064;2023-03-01T06:02:00;18.93;;;13.47;;
12052;SDS011;6087;48.982;12.064;2023-03-01T06:04:27;23.43;;;14.00;;
12052;SDS011;6087;48.982;12.064;2023-03-01T06:06:54;20.37;;;13.50;;
12052;SDS011;6087;48.982;12.064;2023-03-01T06:09:21;22.60;;;12.80;;
12052;SDS011;6087;48.982;12.064;2023-03-01T06:11:48;22.03;;;13.43;;
12052;SDS011;6087;48.982;12.064;2023-03-01T06:14:17;21.73;;;14.07;;
12052;SDS011;6087;48.982;12.064;2023-03-01T06:16:45;24.67;;;14.57;;
12052;SDS011;6087;48.982;12.064;2023-03-01T06:19:12;22.20;;;14.23;;
12052;SDS011;6087;48.982;12.064;2023-03-01T06:21:39;21.70;;;13.77;;
12052;SDS011;6087;48.982;12.064;2023-03-01T06:24:06;22.27;;;14.07;;
12052;SDS011;6087;48.982;12.064;2023-03-01T06:26:34;22.60;;;14.83;;
12052;SDS011;6087;48.982;12.064;2023-03-01T06:29:01;22.63;;;14.67;;
12052;SDS011;6087;48.982;12.064;2023-03-01T06:31:29;24.33;;;14.23;;
12052;SDS011;6087;48.982;12.064;2023-03-01T06:33:56;20.67;;;13.27;;
12052;SDS011;6087;48.982;12.064;2023-03-01T06:36:26;25.17;;;13.63;;
12052;SDS011;6087;48.982;12.064;2023-03-01T06:38:53;22.70;;;13.60;;
12052;SDS011;6087;48.982;12.064;2023-03-01T06:41:20;24.80;;;13.70;;
12052;SDS011;6087;48.982;12.064;2023-03-01T06:43:47;22.83;;;14.20;;
12052;SDS011;6087;48.982;12.064;2023-03-01T06:46:15;24.37;;;14.43;;
12052;SDS011;6087;48.982;12.064;2023-03-01T06:48:43;28.10;;;15.47;;
12052;SDS011;6087;48.982;12.064;2023-03-01T06:51:19;23.60;;;13.60;;
12052;SDS011;6087;48.982;12.064;2023-03-01T06:53:46;24.37;;;14.67;;
12052;SDS011;6087;48.982;12.064;2023-03-01T06:56:14;23.57;;;14.00;;
12052;SDS011;6087;48.982;12.064;2023-03-01T06:58:43;21.20;;;14.00;;
12052;SDS011;6087;48.982;12.064;2023-03-01T07:01:13;25.17;;;15.10;;
12052;SDS011;6087;48.982;12.064;2023-03-01T07:03:40;21.90;;;13.70;;
12052;SDS011;6087;48.982;12.064;2023-03-01T07:06:10;23.10;;;14.43;;
12052;SDS011;6087;48.982;12.064;2023-03-01T07:08:37;24.07;;;13.97;;
12052;SDS011;6087;48.982;12.064;2023-03-01T07:11:04;23.27;;;13.40;;
12052;SDS011;6087;48.982;12.064;2023-03-01T07:13:32;24.37;;;14.63;;
12052;SDS011;6087;48.982;12.064;2023-03-01T07:15:59;23.27;;;14.60;;
12052;SDS011;6087;48.982;12.064;2023-03-01T07:18:32;24.20;;;14.37;;
12052;SDS011;6087;48.982;12.064;2023-03-01T07:21:03;28.37;;;15.57;;
12052;SDS011;6087;48.982;12.064;2023-03-01T07:23:33;26.57;;;16.07;;
12052;SDS011;6087;48.982;12.064;2023-03-01T07:26:00;24.47;;;14.93;;
12052;SDS011;6087;48.982;12.064;2023-03-01T07:28:27;24.27;;;14.80;;
12052;SDS011;6087;48.982;12.064;2023-03-01T07:30:55;24.93;;;14.70;;
12052;SDS011;6087;48.982;12.064;2023-03-01T07:33:27;23.33;;;15.17;;
12052;SDS011;6087;48.982;12.064;2023-03-01T07:35:57;21.93;;;15.03;;
12052;SDS011;6087;48.982;12.064;2023-03-01T07:38:25;21.57;;;14.43;;
12052;SDS011;6087;48.982;12.064;2023-03-01T07:40:53;23.07;;;14.70;;
12052;SDS011;6087;48.982;12.064;2023-03-01T07:43:24;22.90;;;14.23;;
12052;SDS011;6087;48.982;12.064;2023-03-01T07:45:51;24.43;;;15.10;;
12052;SDS011;6087;48.982;12.064;2023-03-01T07:48:18;24.60;;;16.03;;
12052;SDS011;6087;48.982;12.064;2023-03-01T07:50:45;27.17;;;15.60;;
12052;SDS011;6087;48.982;12.064;2023-03-01T07:53:12;21.57;;;14.00;;
12052;SDS011;6087;48.982;12.064;2023-03-01T07:55:42;24.87;;;15.43;;
12052;SDS011;6087;48.982;12.064;2023-03-01T07:58:17;22.80;;;14.50;;
12052;SDS011;6087;48.982;12.064;2023-03-01T08:00:44;25.10;;;14.80;;
12052;SDS011;6087;48.982;12.064;2023-03-01T08:03:11;26.00;;;15.90;;
12052;SDS011;6087;48.982;12.064;2023-03-01T08:05:40;24.33;;;15.10;;
12052;SDS011;6087;48.982;12.064;2023-03-01T08:08:07;23.53;;;14.13;;
12052;SDS011;6087;48.982;12.064;2023-03-01T08:10:34;23.93;;;14.83;;
12052;SDS011;6087;48.982;12.064;2023-03-01T08:13:02;22.37;;;15.03;;
12052;SDS011;6087;48.982;12.064;2023-03-01T08:15:33;24.97;;;15.07;;
12052;SDS011;6087;48.982;12.064;2023-03-01T08:18:03;25.07;;;13.77;;
12052;SDS011;6087;48.982;12.064;2023-03-01T08:20:31;19.70;;;14.73;;
12052;SDS011;6087;48.982;12.064;2023-03-01T08:22:58;21.17;;;14.03;;
12052;SDS011;6087;48.982;12.064;2023-03-01T08:25:25;23.53;;;14.73;;
12052;SDS011;6087;48.982;12.064;2023-03-01T08:27:52;23.60;;;14.43;;
12052;SDS011;6087;48.982;12.064;2023-03-01T08:30:19;22.73;;;14.97;;
12052;SDS011;6087;48.982;12.064;2023-03-01T08:32:50;23.53;;;15.00;;
12052;SDS011;6087;48.982;12.064;2023-03-01T08:35:17;24.23;;;14.67;;
12052;SDS011;6087;48.982;12.064;2023-03-01T08:37:45;24.03;;;15.10;;
12052;SDS011;6087;48.982;12.064;2023-03-01T08:40:13;18.83;;;13.63;;
12052;SDS011;6087;48.982;12.064;2023-03-01T08:42:40;22.43;;;14.90;;
12052;SDS011;6087;48.982;12.064;2023-03-01T08:45:09;25.47;;;14.60;;
12052;SDS011;6087;48.982;12.064;2023-03-01T08:47:37;22.57;;;13.97;;
12052;SDS011;6087;48.982;12.064;2023-03-01T08:50:11;23.33;;;13.60;;
12052;SDS011;6087;48.982;12.064;2023-03-01T08:52:39;23.70;;;13.87;;
12052;SDS011;6087;48.982;12.064;2023-03-01T08:55:06;23.37;;;15.20;;
12052;SDS011;6087;48.982;12.064;2023-03-01T08:57:34;23.90;;;14.83;;
12052;SDS011;6087;48.982;12.064;2023-03-01T09:00:01;22.63;;;14.73;;
12052;SDS011;6087;48.982;12.064;2023-03-01T09:02:33;22.23;;;14.40;;
12052;SDS011;6087;48.982;12.064;2023-03-01T09:05:00;25.63;;;14.30;;
12052;SDS011;6087;48.982;12.064;2023-03-01T09:07:29;21.97;;;13.87;;
12052;SDS011;6087;48.982;12.064;2023-03-01T09:09:56;20.33;;;14.67;;
12052;SDS011;6087;48.982;12.064;2023-03-01T09:12:35;20.77;;;13.33;;
12052;SDS011;6087;48.982;12.064;2023-03-01T09:15:02;24.90;;;15.10;;
12052;SDS011;6087;48.982;12.064;2023-03-01T09:17:30;19.27;;;12.77;;
12052;SDS011;6087;48.982;12.064;2023-03-01T09:20:03;23.07;;;13.27;;
12052;SDS011;6087;48.982;12.064;2023-03-01T09:22:34;21.37;;;13.33;;
12052;SDS011;6087;48.982;12.064;2023-03-01T09:25:01;20.43;;;13.60;;
12052;SDS011;6087;48.982;12.064;2023-03-01T09:27:28;24.23;;;13.20;;
12052;SDS011;6087;48.982;12.064;2023-03-01T09:29:55;19.17;;;13.07;;
12052;SDS011;6087;48.982;12.064;2023-03-01T09:32:22;22.27;;;13.40;;
12052;SDS011;6087;48.982;12.064;2023-03-01T09:34:49;20.83;;;12.43;;
12052;SDS011;6087;48.982;12.064;2023-03-01T09:37:30;21.50;;;13.93;;
12052;SDS011;6087;48.982;12.064;2023-03-01T09:39:59;20.20;;;12.57;;
12052;SDS011;6087;48.982;12.064;2023-03-01T09:42:27;24.27;;;13.20;;
12052;SDS011;6087;48.982;12.064;2023-03-01T09:44:58;20.00;;;12.80;;
12052;SDS011;6087;48.982;12.064;2023-03-01T09:47:32;21.93;;;14.40;;
12052;SDS011;6087;48.982;12.064;2023-03-01T09:50:02;20.93;;;13.30;;
12052;SDS011;6087;48.982;12.064;2023-03-01T09:52:34;16.37;;;10.77;;
12052;SDS011;6087;48.982;12.064;2023-03-01T09:55:10;20.93;;;12.80;;
12052;SDS011;6087;48.982;12.064;2023-03-01T09:57:41;17.93;;;11.93;;
12052;SDS011;6087;48.982;12.064;2023-03-01T10:00:30;20.60;;;12.90;;
12052;SDS011;6087;48.982;12.064;2023-03-01T10:03:06;17.10;;;13.37;;
12052;SDS011;6087;48.982;12.064;2023-03-01T10:05:42;20.17;;;12.93;;
12052;SDS011;6087;48.982;12.064;2023-03-01T10:08:24;20.47;;;12.73;;
12052;SDS011;6087;48.982;12.064;2023-03-01T10:11:19;18.53;;;12.70;;
12052;SDS011;6087;48.982;12.064;2023-03-01T10:13:50;18.50;;;12.37;;
12052;SDS011;6087;48.982;12.064;2023-03-01T10:16:26;21.03;;;13.13;;
12052;SDS011;6087;48.982;12.064;2023-03-01T10:19:01;20.63;;;12.77;;
12052;SDS011;6087;48.982;12.064;2023-03-01T10:21:31;23.73;;;13.23;;
12052;SDS011;6087;48.982;12.064;2023-03-01T10:24:08;23.30;;;12.83;;
12052;SDS011;6087;48.982;12.064;2023-03-01T10:26:43;21.30;;;13.20;;
12052;SDS011;6087;48.982;12.064;2023-03-01T10:29:14;19.57;;;12.70;;
12052;SDS011;6087;48.982;12.064;2023-03-01T10:31:42;20.87;;;13.67;;
12052;SDS011;6087;48.982;12.064;2023-03-01T10:34:13;20.57;;;13.00;;
12052;SDS011;6087;48.982;12.064;2023-03-01T10:36:43;17.97;;;13.13;;
12052;SDS011;6087;48.982;12.064;2023-03-01T10:39:14;18.73;;;13.53;;
12052;SDS011;6087;48.982;12.064;2023-03-01T10:41:54;16.03;;;11.73;;
12052;SDS011;6087;48.982;12.064;2023-03-01T10:44:34;19.00;;;12.90;;
12052;SDS011;6087;48.982;12.064;2023-03-01T10:47:03;18.93;;;12.83;;
12052;SDS011;6087;48.982;12.064;2023-03-01T10:49:34;17.90;;;12.20;;
12052;SDS011;6087;48.982;12.064;2023-03-01T10:52:11;17.03;;;13.27;;
12052;SDS011;6087;48.982;12.064;2023-03-01T10:54:46;20.43;;;12.83;;
12052;SDS011;6087;48.982;12.064;2023-03-01T10:57:31;20.87;;;11.83;;
12052;SDS011;6087;48.982;12.064;2023-03-01T11:03:10;23.07;;;12.47;;
12052;SDS011;6087;48.982;12.064;2023-03-01T11:05:50;18.07;;;12.63;;
12052;SDS011;6087;48.982;12.064;2023-03-01T11:08:32;15.13;;;11.73;;
12052;SDS011;6087;48.982;12.064;2023-03-01T11:11:15;16.67;;;11.90;;
12052;SDS011;6087;48.982;12.064;2023-03-01T11:13:51;21.93;;;13.80;;
12052;SDS011;6087;48.982;12.064;2023-03-01T11:16:28;19.60;;;12.90;;
12052;SDS011;6087;48.982;12.064;2023-03-01T11:19:04;22.77;;;13.27;;
12052;SDS011;6087;48.982;12.064;2023-03-01T11:21:43;17.50;;;11.80;;
12052;SDS011;6087;48.982;12.064;2023-03-01T11:24:17;17.40;;;11.57;;
12052;SDS011;6087;48.982;12.064;2023-03-01T11:26:47;16.20;;;11.73;;
12052;SDS011;6087;48.982;12.064;2023-03-01T11:29:32;16.97;;;11.67;;
12052;SDS011;6087;48.982;12.064;2023-03-01T11:32:06;18.50;;;12.23;;
12052;SDS011;6087;48.982;12.064;2023-03-01T11:34:37;17.97;;;11.67;;
12052;SDS011;6087;48.982;12.064;2023-03-01T11:37:12;18.73;;;13.10;;
12052;SDS011;6087;48.982;12.064;2023-03-01T11:39:51;19.60;;;11.93;;
12052;SDS011;6087;48.982;12.064;2023-03-01T11:42:26;17.50;;;12.30;;
12052;SDS011;6087;48.982;12.064;2023-03-01T11:45:06;20.53;;;12.40;;
12052;SDS011;6087;48.982;12.064;2023-03-01T11:47:43;19.83;;;12.53;;
12052;SDS011;6087;48.982;12.064;2023-03-01T11:50:26;18.57;;;12.10;;
12052;SDS011;6087;48.982;12.064;2023-03-01T11:53:02;17.73;;;12.40;;
12052;SDS011;6087;48.982;12.064;2023-03-01T11:55:51;21.70;;;13.40;;
12052;SDS011;6087;48.982;12.064;2023-03-01T12:01:36;17.30;;;13.10;;
12052;SDS011;6087;48.982;12.064;2023-03-01T12:07:18;17.93;;;12.70;;
12052;SDS011;6087;48.982;12.064;2023-03-01T12:09:59;19.63;;;13.20;;
12052;SDS011;6087;48.982;12.064;2023-03-01T12:12:46;22.03;;;14.37;;
12052;SDS011;6087;48.982;12.064;2023-03-01T12:15:39;19.70;;;14.57;;
12052;SDS011;6087;48.982;12.064;2023-03-01T12:21:24;20.33;;;11.97;;
12052;SDS011;6087;48.982;12.064;2023-03-01T12:24:15;17.87;;;12.57;;
12052;SDS011;6087;48.982;12.064;2023-03-01T12:27:11;21.03;;;12.47;;
12052;SDS011;6087;48.982;12.064;2023-03-01T12:29:47;20.13;;;12.93;;
12052;SDS011;6087;48.982;12.064;2023-03-01T12:32:26;16.43;;;12.23;;
12052;SDS011;6087;48.982;12.064;2023-03-01T12:35:20;20.47;;;13.13;;
12052;SDS011;6087;48.982;12.064;2023-03-01T12:38:06;17.47;;;12.40;;
12052;SDS011;6087;48.982;12.064;2023-03-01T12:43:51;18.15;;;13.30;;
12052;SDS011;6087;48.982;12.064;2023-03-01T12:46:34;18.63;;;12.98;;
12052;SDS011;6087;48.982;12.064;2023-03-01T12:49:12;20.42;;;13.60;;
12052;SDS011;6087;48.982;12.064;2023-03-01T12:51:44;16.08;;;12.18;;
12052;SDS011;6087;48.982;12.064;2023-03-01T12:54:20;14.90;;;11.98;;
12052;SDS011;6087;48.982;12.064;2023-03-01T12:56:52;15.38;;;11.35;;
12052;SDS011;6087;48.982;12.064;2023-03-01T12:59:22;15.25;;;12.88;;
12052;SDS011;6087;48.982;12.064;2023-03-01T13:01:55;15.00;;;12.20;;
12052;SDS011;6087;48.982;12.064;2023-03-01T13:04:34;17.83;;;13.70;;
12052;SDS011;6087;48.982;12.064;2023-03-01T13:07:14;14.90;;;11.85;;
12052;SDS011;6087;48.982;12.064;2023-03-01T13:09:50;14.32;;;12.32;;
12052;SDS011;6087;48.982;12.064;2023-03-01T13:12:42;15.10;;;13.43;;
12052;SDS011;6087;48.982;12.064;2023-03-01T13:15:26;15.43;;;13.70;;
12052;SDS011;6087;48.982;12.064;2023-03-01T13:17:59;15.15;;;13.55;;
12052;SDS011;6087;48.982;12.064;2023-03-01T13:20:29;17.88;;;13.68;;
12052;SDS011;6087;48.982;12.064;2023-03-01T13:23:00;15.13;;;12.73;;
12052;SDS011;6087;48.982;12.064;2023-03-01T13:25:31;19.60;;;13.15;;
12052;SDS011;6087;48.982;12.064;2023-03-01T13:37:21;13.73;;;12.40;;
12052;SDS011;6087;48.982;12.064;2023-03-01T13:39:54;14.23;;;12.75;;
12052;SDS011;6087;48.982;12.064;2023-03-01T13:42:39;15.77;;;12.73;;
12052;SDS011;6087;48.982;12.064;2023-03-01T13:45:24;14.85;;;13.43;;
12052;SDS011;6087;48.982;12.064;2023-03-01T13:48:08;13.65;;;12.35;;
12052;SDS011;6087;48.982;12.064;2023-03-01T13:50:38;14.25;;;12.75;;
12052;SDS011;6087;48.982;12.064;2023-03-01T13:53:15;15.77;;;14.05;;
12052;SDS011;6087;48.982;12.064;2023-03-01T13:55:46;14.48;;;12.93;;
12052;SDS011;6087;48.982;12.064;2023-03-01T13:58:18;14.65;;;13.13;;
12052;SDS011;6087;48.982;12.064;2023-03-01T14:00:54;14.30;;;12.90;;
12052;SDS011;6087;48.982;12.064;2023-03-01T14:03:23;14.23;;;12.88;;
12052;SDS011;6087;48.982;12.064;2023-03-01T14:05:58;14.02;;;12.60;;
12052;SDS011;6087;48.982;12.064;2023-03-01T14:08:33;15.55;;;13.80;;
12052;SDS011;6087;48.982;12.064;2023-03-01T14:11:06;14.93;;;13.52;;
12052;SDS011;6087;48.982;12.064;2023-03-01T14:14:03;14.50;;;13.00;;
12052;SDS011;6087;48.982;12.064;2023-03-01T14:16:53;13.90;;;12.55;;
12052;SDS011;6087;48.982;12.064;2023-03-01T14:19:29;17.02;;;14.02;;
12052;SDS011;6087;48.982;12.064;2023-03-01T14:22:04;14.13;;;12.63;;
12052;SDS011;6087;48.982;12.064;2023-03-01T14:24:39;14.40;;;13.10;;
12052;SDS011;6087;48.982;12.064;2023-03-01T14:27:11;14.40;;;13.00;;
12052;SDS011;6087;48.982;12.064;2023-03-01T14:29:41;16.17;;;14.43;;
12052;SDS011;6087;48.982;12.064;2023-03-01T14:32:17;14.45;;;13.05;;
12052;SDS011;6087;48.982;12.064;2023-03-01T14:34:50;13.82;;;12.38;;
12052;SDS011;6087;48.982;12.064;2023-03-01T14:37:18;14.52;;;13.02;;
12052;SDS011;6087;48.982;12.064;2023-03-01T14:39:47;14.57;;;13.07;;
12052;SDS011;6087;48.982;12.064;2023-03-01T14:42:20;15.38;;;13.77;;
12052;SDS011;6087;48.982;12.064;2023-03-01T14:44:51;16.17;;;13.55;;
12052;SDS011;6087;48.982;12.064;2023-03-01T14:47:23;16.23;;;13.20;;
12052;SDS011;6087;48.982;12.064;2023-03-01T14:49:56;15.48;;;13.25;;
12052;SDS011;6087;48.982;12.064;2023-03-01T14:52:30;14.43;;;13.05;;
12052;SDS011;6087;48.982;12.064;2023-03-01T14:55:01;15.90;;;13.30;;
12052;SDS011;6087;48.982;12.064;2023-03-01T14:57:32;15.15;;;12.88;;
12052;SDS011;6087;48.982;12.064;2023-03-01T15:00:05;20.35;;;14.15;;
12052;SDS011;6087;48.982;12.064;2023-03-01T15:02:33;16.45;;;13.70;;
12052;SDS011;6087;48.982;12.064;2023-03-01T15:05:02;15.13;;;13.27;;
12052;SDS011;6087;48.982;12.064;2023-03-01T15:07:33;14.43;;;12.93;;
12052;SDS011;6087;48.982;12.064;2023-03-01T15:10:02;17.90;;;12.65;;
12052;SDS011;6087;48.982;12.064;2023-03-01T15:12:38;14.80;;;13.18;;